sensor_id;sensor_type;location;lat;lon;timestamp;P1;durP1;ratioP1;P2;durP2;ratioP2
11034;SDS011;5571;48.110;-1.706;2023-02-21T00:00:26;11.47;;;10.27;;
11034;SDS011;5571;48.110;-1.706;2023-02-21T00:03:11;12.90;;;9.93;;
11034;SDS011;5571;48.110;-1.706;2023-02-21T00:05:55;16.80;;;10.13;;
11034;SDS011;5571;48.110;-1.706;2023-02-21T00:08:39;10.93;;;9.30;;
11034;SDS011;5571;48.110;-1.706;2023-02-21T00:11:24;10.27;;;9.27;;
11034;SDS011;5571;48.110;-1.706;2023-02-21T00:14:08;10.27;;;9.20;;
11034;SDS011;5571;48.110;-1.706;2023-02-21T00:16:53;10.23;;;9.23;;
11034;SDS011;5571;48.110;-1.706;2023-02-21T00:19:37;9.33;;;8.47;;
11034;SDS011;5571;48.110;-1.706;2023-02-21T00:22:21;9.27;;;8.27;;
11034;SDS011;5571;48.110;-1.706;2023-02-21T00:25:06;9.20;;;8.30;;
11034;SDS011;5571;48.110;-1.706;2023-02-21T00:27:50;9.07;;;8.17;;
11034;SDS011;5571;48.110;-1.706;2023-02-21T00:30:34;11.10;;;8.60;;
11034;SDS011;5571;48.110;-1.706;2023-02-21T00:33:19;9.60;;;8.63;;
11034;SDS011;5571;48.110;-1.706;2023-02-21T00:36:03;9.53;;;8.53;;
11034;SDS011;5571;48.110;-1.706;2023-02-21T00:38:48;11.53;;;8.90;;
11034;SDS011;5571;48.110;-1.706;2023-02-21T00:41:32;9.80;;;8.80;;
11034;SDS011;5571;48.110;-1.706;2023-02-21T00:44:17;9.40;;;8.50;;
11034;SDS011;5571;48.110;-1.706;2023-02-21T00:47:01;10.13;;;9.13;;
11034;SDS011;5571;48.110;-1.706;2023-02-21T00:49:46;11.37;;;8.93;;
11034;SDS011;5571;48.110;-1.706;2023-02-21T00:52:30;10.47;;;8.77;;
11034;SDS011;5571;48.110;-1.706;2023-02-21T00:55:14;12.77;;;10.03;;
11034;SDS011;5571;48.110;-1.706;2023-02-21T00:57:58;11.43;;;8.90;;
11034;SDS011;5571;48.110;-1.706;2023-02-21T01:00:43;10.70;;;9.57;;
11034;SDS011;5571;48.110;-1.706;2023-02-21T01:03:27;15.03;;;9.77;;
11034;SDS011;5571;48.110;-1.706;2023-02-21T01:06:11;10.83;;;9.53;;
11034;SDS011;5571;48.110;-1.706;2023-02-21T01:08:56;10.33;;;9.30;;
11034;SDS011;5571;48.110;-1.706;2023-02-21T01:11:40;10.57;;;9.50;;
11034;SDS011;5571;48.110;-1.706;2023-02-21T01:14:24;10.53;;;9.30;;
11034;SDS011;5571;48.110;-1.706;2023-02-21T01:17:09;11.07;;;9.63;;
11034;SDS011;5571;48.110;-1.706;2023-02-21T01:19:53;10.07;;;9.07;;
11034;SDS011;5571;48.110;-1.706;2023-02-21T01:22:37;10.23;;;9.23;;
11034;SDS011;5571;48.110;-1.706;2023-02-21T01:25:21;11.27;;;8.90;;
11034;SDS011;5571;48.110;-1.706;2023-02-21T01:28:06;9.53;;;8.60;;
11034;SDS011;5571;48.110;-1.706;2023-02-21T01:30:50;9.77;;;8.77;;
11034;SDS011;5571;48.110;-1.706;2023-02-21T01:33:36;10.53;;;9.03;;
11034;SDS011;5571;48.110;-1.706;2023-02-21T01:36:21;9.97;;;8.97;;
11034;SDS011;5571;48.110;-1.706;2023-02-21T01:39:06;12.87;;;9.67;;
11034;SDS011;5571;48.110;-1.706;2023-02-21T01:41:50;9.50;;;8.60;;
11034;SDS011;5571;48.110;-1.706;2023-02-21T01:44:36;10.60;;;9.50;;
11034;SDS011;5571;48.110;-1.706;2023-02-21T01:47:24;10.40;;;9.40;;
11034;SDS011;5571;48.110;-1.706;2023-02-21T01:50:12;10.27;;;9.23;;
11034;SDS011;5571;48.110;-1.706;2023-02-21T01:53:02;11.13;;;9.93;;
11034;SDS011;5571;48.110;-1.706;2023-02-21T01:55:49;12.27;;;9.87;;
11034;SDS011;5571;48.110;-1.706;2023-02-21T01:58:34;11.07;;;9.97;;
11034;SDS011;5571;48.110;-1.706;2023-02-21T02:01:22;12.37;;;10.20;;
11034;SDS011;5571;48.110;-1.706;2023-02-21T02:04:16;14.67;;;9.37;;
11034;SDS011;5571;48.110;-1.706;2023-02-21T02:07:00;9.43;;;8.53;;
11034;SDS011;5571;48.110;-1.706;2023-02-21T02:09:45;11.57;;;8.97;;
11034;SDS011;5571;48.110;-1.706;2023-02-21T02:12:34;10.00;;;8.77;;
11034;SDS011;5571;48.110;-1.706;2023-02-21T02:35:35;11.80;;;9.90;;
11034;SDS011;5571;48.110;-1.706;2023-02-21T02:38:18;9.93;;;8.93;;
11034;SDS011;5571;48.110;-1.706;2023-02-21T02:43:58;8.83;;;7.93;;
11034;SDS011;5571;48.110;-1.706;2023-02-21T02:46:30;10.63;;;7.73;;
11034;SDS011;5571;48.110;-1.706;2023-02-21T02:49:19;8.70;;;7.80;;
11034;SDS011;5571;48.110;-1.706;2023-02-21T02:51:49;10.43;;;8.17;;
11034;SDS011;5571;48.110;-1.706;2023-02-21T02:54:16;7.90;;;7.10;;
11034;SDS011;5571;48.110;-1.706;2023-02-21T02:56:41;7.67;;;6.87;;
11034;SDS011;5571;48.110;-1.706;2023-02-21T02:59:09;7.53;;;6.83;;
11034;SDS011;5571;48.110;-1.706;2023-02-21T03:09:45;9.30;;;8.03;;
11034;SDS011;5571;48.110;-1.706;2023-02-21T03:12:32;9.03;;;8.13;;
11034;SDS011;5571;48.110;-1.706;2023-02-21T03:18:03;8.23;;;7.43;;
11034;SDS011;5571;48.110;-1.706;2023-02-21T03:20:34;8.80;;;8.00;;
11034;SDS011;5571;48.110;-1.706;2023-02-21T03:23:01;8.10;;;7.40;;
11034;SDS011;5571;48.110;-1.706;2023-02-21T03:25:28;7.77;;;6.97;;
11034;SDS011;5571;48.110;-1.706;2023-02-21T03:27:55;7.40;;;6.70;;
11034;SDS011;5571;48.110;-1.706;2023-02-21T03:30:23;7.60;;;6.90;;
11034;SDS011;5571;48.110;-1.706;2023-02-21T03:32:50;7.87;;;7.07;;
11034;SDS011;5571;48.110;-1.706;2023-02-21T03:35:18;7.40;;;6.70;;
11034;SDS011;5571;48.110;-1.706;2023-02-21T03:37:47;8.43;;;6.77;;
11034;SDS011;5571;48.110;-1.706;2023-02-21T03:42:43;7.20;;;6.60;;
11034;SDS011;5571;48.110;-1.706;2023-02-21T03:45:09;6.93;;;6.23;;
11034;SDS011;5571;48.110;-1.706;2023-02-21T03:47:35;7.40;;;6.70;;
11034;SDS011;5571;48.110;-1.706;2023-02-21T03:50:00;7.90;;;7.10;;
11034;SDS011;5571;48.110;-1.706;2023-02-21T03:52:26;7.43;;;6.73;;
11034;SDS011;5571;48.110;-1.706;2023-02-21T03:54:52;7.77;;;6.97;;
11034;SDS011;5571;48.110;-1.706;2023-02-21T03:57:17;7.07;;;6.37;;
11034;SDS011;5571;48.110;-1.706;2023-02-21T03:59:43;7.43;;;6.73;;
11034;SDS011;5571;48.110;-1.706;2023-02-21T04:02:09;8.90;;;7.50;;
11034;SDS011;5571;48.110;-1.706;2023-02-21T04:04:35;7.20;;;6.47;;
11034;SDS011;5571;48.110;-1.706;2023-02-21T04:07:00;6.70;;;6.10;;
11034;SDS011;5571;48.110;-1.706;2023-02-21T04:09:26;8.00;;;6.83;;
11034;SDS011;5571;48.110;-1.706;2023-02-21T04:11:52;8.33;;;7.23;;
11034;SDS011;5571;48.110;-1.706;2023-02-21T04:14:19;7.90;;;7.10;;
11034;SDS011;5571;48.110;-1.706;2023-02-21T04:16:45;7.97;;;7.17;;
11034;SDS011;5571;48.110;-1.706;2023-02-21T04:19:11;7.83;;;7.03;;
11034;SDS011;5571;48.110;-1.706;2023-02-21T04:21:37;7.40;;;6.70;;
11034;SDS011;5571;48.110;-1.706;2023-02-21T04:24:03;8.00;;;6.63;;
11034;SDS011;5571;48.110;-1.706;2023-02-21T04:26:28;6.87;;;6.27;;
11034;SDS011;5571;48.110;-1.706;2023-02-21T04:28:54;7.43;;;6.40;;
11034;SDS011;5571;48.110;-1.706;2023-02-21T04:31:20;7.23;;;6.13;;
11034;SDS011;5571;48.110;-1.706;2023-02-21T04:33:47;6.73;;;6.10;;
11034;SDS011;5571;48.110;-1.706;2023-02-21T04:36:13;7.10;;;6.40;;
11034;SDS011;5571;48.110;-1.706;2023-02-21T04:38:40;7.50;;;6.80;;
11034;SDS011;5571;48.110;-1.706;2023-02-21T04:41:05;7.57;;;6.80;;
11034;SDS011;5571;48.110;-1.706;2023-02-21T04:43:31;6.93;;;6.23;;
11034;SDS011;5571;48.110;-1.706;2023-02-21T04:45:58;6.63;;;6.03;;
11034;SDS011;5571;48.110;-1.706;2023-02-21T04:48:24;7.17;;;6.43;;
11034;SDS011;5571;48.110;-1.706;2023-02-21T04:50:50;6.60;;;6.00;;
11034;SDS011;5571;48.110;-1.706;2023-02-21T04:53:16;6.97;;;6.27;;
11034;SDS011;5571;48.110;-1.706;2023-02-21T04:55:41;6.57;;;5.97;;
11034;SDS011;5571;48.110;-1.706;2023-02-21T04:58:07;17.87;;;6.53;;
11034;SDS011;5571;48.110;-1.706;2023-02-21T05:00:33;7.03;;;6.40;;
11034;SDS011;5571;48.110;-1.706;2023-02-21T05:02:58;6.60;;;6.00;;
11034;SDS011;5571;48.110;-1.706;2023-02-21T05:05:25;7.13;;;6.43;;
11034;SDS011;5571;48.110;-1.706;2023-02-21T05:07:50;6.67;;;6.03;;
11034;SDS011;5571;48.110;-1.706;2023-02-21T05:10:17;7.90;;;5.93;;
11034;SDS011;5571;48.110;-1.706;2023-02-21T05:12:43;7.67;;;6.57;;
11034;SDS011;5571;48.110;-1.706;2023-02-21T05:15:11;6.40;;;5.80;;
11034;SDS011;5571;48.110;-1.706;2023-02-21T05:17:37;6.70;;;6.10;;
11034;SDS011;5571;48.110;-1.706;2023-02-21T05:20:03;6.83;;;5.97;;
11034;SDS011;5571;48.110;-1.706;2023-02-21T05:22:36;6.60;;;5.80;;
11034;SDS011;5571;48.110;-1.706;2023-02-21T05:25:04;6.77;;;6.07;;
11034;SDS011;5571;48.110;-1.706;2023-02-21T05:27:31;9.17;;;6.80;;
11034;SDS011;5571;48.110;-1.706;2023-02-21T05:29:56;6.80;;;5.83;;
11034;SDS011;5571;48.110;-1.706;2023-02-21T05:32:22;7.30;;;5.87;;
11034;SDS011;5571;48.110;-1.706;2023-02-21T05:34:48;7.17;;;5.80;;
11034;SDS011;5571;48.110;-1.706;2023-02-21T05:37:14;6.93;;;5.90;;
11034;SDS011;5571;48.110;-1.706;2023-02-21T05:39:40;6.93;;;6.23;;
11034;SDS011;5571;48.110;-1.706;2023-02-21T05:42:06;9.37;;;6.40;;
11034;SDS011;5571;48.110;-1.706;2023-02-21T05:44:32;6.30;;;5.70;;
11034;SDS011;5571;48.110;-1.706;2023-02-21T05:46:58;7.07;;;5.87;;
11034;SDS011;5571;48.110;-1.706;2023-02-21T05:49:24;6.30;;;5.70;;
11034;SDS011;5571;48.110;-1.706;2023-02-21T05:51:50;7.53;;;5.87;;
11034;SDS011;5571;48.110;-1.706;2023-02-21T05:54:17;6.73;;;6.03;;
11034;SDS011;5571;48.110;-1.706;2023-02-21T05:56:45;5.60;;;5.03;;
11034;SDS011;5571;48.110;-1.706;2023-02-21T05:59:12;6.83;;;5.57;;
11034;SDS011;5571;48.110;-1.706;2023-02-21T06:01:38;6.47;;;5.87;;
11034;SDS011;5571;48.110;-1.706;2023-02-21T06:04:04;6.47;;;5.87;;
11034;SDS011;5571;48.110;-1.706;2023-02-21T06:06:32;7.87;;;5.53;;
11034;SDS011;5571;48.110;-1.706;2023-02-21T06:08:58;6.53;;;5.90;;
11034;SDS011;5571;48.110;-1.706;2023-02-21T06:11:28;6.40;;;5.80;;
11034;SDS011;5571;48.110;-1.706;2023-02-21T06:13:57;5.20;;;4.70;;
11034;SDS011;5571;48.110;-1.706;2023-02-21T06:16:25;6.03;;;5.43;;
11034;SDS011;5571;48.110;-1.706;2023-02-21T06:18:53;5.87;;;5.33;;
11034;SDS011;5571;48.110;-1.706;2023-02-21T06:21:21;5.90;;;5.40;;
11034;SDS011;5571;48.110;-1.706;2023-02-21T06:23:47;6.00;;;5.40;;
11034;SDS011;5571;48.110;-1.706;2023-02-21T06:26:13;5.47;;;4.97;;
11034;SDS011;5571;48.110;-1.706;2023-02-21T06:28:43;6.10;;;5.50;;
11034;SDS011;5571;48.110;-1.706;2023-02-21T06:31:09;5.63;;;5.13;;
11034;SDS011;5571;48.110;-1.706;2023-02-21T06:33:35;5.50;;;5.00;;
11034;SDS011;5571;48.110;-1.706;2023-02-21T06:36:04;5.93;;;5.33;;
11034;SDS011;5571;48.110;-1.706;2023-02-21T06:38:32;5.37;;;4.97;;
11034;SDS011;5571;48.110;-1.706;2023-02-21T06:40:58;5.87;;;5.00;;
11034;SDS011;5571;48.110;-1.706;2023-02-21T06:43:24;5.60;;;5.10;;
11034;SDS011;5571;48.110;-1.706;2023-02-21T06:45:50;5.57;;;5.07;;
11034;SDS011;5571;48.110;-1.706;2023-02-21T06:48:15;5.33;;;4.83;;
11034;SDS011;5571;48.110;-1.706;2023-02-21T06:50:42;5.07;;;4.63;;
11034;SDS011;5571;48.110;-1.706;2023-02-21T06:53:08;5.97;;;5.47;;
11034;SDS011;5571;48.110;-1.706;2023-02-21T06:55:33;5.77;;;4.90;;
11034;SDS011;5571;48.110;-1.706;2023-02-21T06:57:59;6.67;;;5.37;;
11034;SDS011;5571;48.110;-1.706;2023-02-21T07:00:24;5.60;;;5.10;;
11034;SDS011;5571;48.110;-1.706;2023-02-21T07:02:53;6.13;;;5.53;;
11034;SDS011;5571;48.110;-1.706;2023-02-21T07:05:19;5.60;;;5.03;;
11034;SDS011;5571;48.110;-1.706;2023-02-21T07:07:45;6.40;;;5.70;;
11034;SDS011;5571;48.110;-1.706;2023-02-21T07:10:11;6.03;;;5.53;;
11034;SDS011;5571;48.110;-1.706;2023-02-21T07:12:37;6.57;;;5.93;;
11034;SDS011;5571;48.110;-1.706;2023-02-21T07:15:03;6.27;;;5.67;;
11034;SDS011;5571;48.110;-1.706;2023-02-21T07:17:29;6.53;;;5.93;;
11034;SDS011;5571;48.110;-1.706;2023-02-21T07:19:55;7.10;;;6.40;;
11034;SDS011;5571;48.110;-1.706;2023-02-21T07:22:21;6.13;;;5.53;;
11034;SDS011;5571;48.110;-1.706;2023-02-21T07:24:53;9.30;;;6.17;;
11034;SDS011;5571;48.110;-1.706;2023-02-21T07:27:20;6.50;;;5.90;;
11034;SDS011;5571;48.110;-1.706;2023-02-21T07:29:49;10.90;;;6.40;;
11034;SDS011;5571;48.110;-1.706;2023-02-21T07:32:15;6.70;;;6.00;;
11034;SDS011;5571;48.110;-1.706;2023-02-21T07:34:41;6.73;;;6.13;;
11034;SDS011;5571;48.110;-1.706;2023-02-21T07:37:07;7.77;;;6.00;;
11034;SDS011;5571;48.110;-1.706;2023-02-21T07:39:33;6.70;;;6.07;;
11034;SDS011;5571;48.110;-1.706;2023-02-21T07:41:59;6.93;;;6.23;;
11034;SDS011;5571;48.110;-1.706;2023-02-21T07:44:25;9.17;;;6.70;;
11034;SDS011;5571;48.110;-1.706;2023-02-21T07:46:50;8.50;;;6.40;;
11034;SDS011;5571;48.110;-1.706;2023-02-21T07:49:16;9.23;;;6.60;;
11034;SDS011;5571;48.110;-1.706;2023-02-21T07:51:42;7.17;;;6.47;;
11034;SDS011;5571;48.110;-1.706;2023-02-21T07:54:08;10.20;;;6.40;;
11034;SDS011;5571;48.110;-1.706;2023-02-21T07:56:33;7.53;;;6.50;;
11034;SDS011;5571;48.110;-1.706;2023-02-21T07:58:59;7.03;;;6.33;;
11034;SDS011;5571;48.110;-1.706;2023-02-21T08:01:25;10.83;;;6.27;;
11034;SDS011;5571;48.110;-1.706;2023-02-21T08:03:51;11.37;;;6.70;;
11034;SDS011;5571;48.110;-1.706;2023-02-21T08:06:17;8.87;;;6.77;;
11034;SDS011;5571;48.110;-1.706;2023-02-21T08:08:43;13.50;;;6.60;;
11034;SDS011;5571;48.110;-1.706;2023-02-21T08:11:09;16.63;;;6.77;;
11034;SDS011;5571;48.110;-1.706;2023-02-21T08:13:35;17.00;;;6.80;;
11034;SDS011;5571;48.110;-1.706;2023-02-21T08:16:01;10.33;;;6.73;;
11034;SDS011;5571;48.110;-1.706;2023-02-21T08:18:27;9.67;;;6.70;;
11034;SDS011;5571;48.110;-1.706;2023-02-21T08:20:54;12.83;;;7.03;;
11034;SDS011;5571;48.110;-1.706;2023-02-21T08:23:21;12.97;;;7.10;;
11034;SDS011;5571;48.110;-1.706;2023-02-21T08:25:47;11.80;;;7.13;;
11034;SDS011;5571;48.110;-1.706;2023-02-21T08:28:13;15.77;;;7.00;;
11034;SDS011;5571;48.110;-1.706;2023-02-21T08:30:40;7.30;;;6.57;;
11034;SDS011;5571;48.110;-1.706;2023-02-21T08:33:06;11.43;;;7.50;;
11034;SDS011;5571;48.110;-1.706;2023-02-21T08:35:31;8.20;;;6.50;;
11034;SDS011;5571;48.110;-1.706;2023-02-21T08:37:57;8.63;;;6.83;;
11034;SDS011;5571;48.110;-1.706;2023-02-21T08:40:27;10.30;;;7.07;;
11034;SDS011;5571;48.110;-1.706;2023-02-21T08:42:54;15.93;;;7.70;;
11034;SDS011;5571;48.110;-1.706;2023-02-21T08:45:21;7.67;;;6.90;;
11034;SDS011;5571;48.110;-1.706;2023-02-21T08:47:48;15.63;;;7.10;;
11034;SDS011;5571;48.110;-1.706;2023-02-21T08:50:15;11.40;;;7.50;;
11034;SDS011;5571;48.110;-1.706;2023-02-21T08:52:41;15.90;;;7.27;;
11034;SDS011;5571;48.110;-1.706;2023-02-21T08:55:09;18.63;;;7.77;;
11034;SDS011;5571;48.110;-1.706;2023-02-21T08:57:35;10.97;;;7.60;;
11034;SDS011;5571;48.110;-1.706;2023-02-21T09:00:00;19.43;;;8.40;;
11034;SDS011;5571;48.110;-1.706;2023-02-21T09:02:26;10.00;;;7.80;;
11034;SDS011;5571;48.110;-1.706;2023-02-21T09:04:56;13.77;;;7.80;;
11034;SDS011;5571;48.110;-1.706;2023-02-21T09:07:23;14.10;;;7.50;;
11034;SDS011;5571;48.110;-1.706;2023-02-21T09:09:49;11.70;;;7.60;;
11034;SDS011;5571;48.110;-1.706;2023-02-21T09:12:14;8.03;;;7.20;;
11034;SDS011;5571;48.110;-1.706;2023-02-21T09:14:41;9.47;;;7.83;;
11034;SDS011;5571;48.110;-1.706;2023-02-21T09:17:08;15.40;;;8.17;;
11034;SDS011;5571;48.110;-1.706;2023-02-21T09:19:35;12.70;;;8.50;;
11034;SDS011;5571;48.110;-1.706;2023-02-21T09:22:01;12.13;;;7.97;;
11034;SDS011;5571;48.110;-1.706;2023-02-21T09:24:30;11.63;;;8.40;;
11034;SDS011;5571;48.110;-1.706;2023-02-21T09:26:57;10.20;;;8.50;;
11034;SDS011;5571;48.110;-1.706;2023-02-21T09:29:26;11.20;;;8.77;;
11034;SDS011;5571;48.110;-1.706;2023-02-21T09:31:51;10.43;;;8.40;;
11034;SDS011;5571;48.110;-1.706;2023-02-21T09:34:18;16.07;;;8.47;;
11034;SDS011;5571;48.110;-1.706;2023-02-21T09:36:45;14.33;;;8.67;;
11034;SDS011;5571;48.110;-1.706;2023-02-21T09:39:12;10.37;;;8.53;;
11034;SDS011;5571;48.110;-1.706;2023-02-21T09:41:39;11.57;;;8.20;;
11034;SDS011;5571;48.110;-1.706;2023-02-21T09:44:09;16.03;;;9.13;;
11034;SDS011;5571;48.110;-1.706;2023-02-21T09:46:43;11.70;;;8.40;;
11034;SDS011;5571;48.110;-1.706;2023-02-21T09:49:13;12.37;;;8.50;;
11034;SDS011;5571;48.110;-1.706;2023-02-21T09:51:41;13.50;;;8.70;;
11034;SDS011;5571;48.110;-1.706;2023-02-21T09:57:11;12.67;;;9.50;;
11034;SDS011;5571;48.110;-1.706;2023-02-21T09:59:41;11.70;;;8.80;;
11034;SDS011;5571;48.110;-1.706;2023-02-21T10:04:46;16.03;;;8.30;;
11034;SDS011;5571;48.110;-1.706;2023-02-21T10:10:11;10.90;;;8.90;;
11034;SDS011;5571;48.110;-1.706;2023-02-21T10:23:13;12.70;;;9.37;;
11034;SDS011;5571;48.110;-1.706;2023-02-21T10:25:42;13.63;;;9.50;;
11034;SDS011;5571;48.110;-1.706;2023-02-21T10:28:13;11.50;;;9.13;;
11034;SDS011;5571;48.110;-1.706;2023-02-21T10:30:44;12.60;;;9.33;;
11034;SDS011;5571;48.110;-1.706;2023-02-21T10:33:12;12.97;;;10.07;;
11034;SDS011;5571;48.110;-1.706;2023-02-21T10:35:38;18.53;;;10.10;;
11034;SDS011;5571;48.110;-1.706;2023-02-21T10:38:12;21.30;;;10.47;;
11034;SDS011;5571;48.110;-1.706;2023-02-21T10:40:50;11.57;;;9.80;;
11034;SDS011;5571;48.110;-1.706;2023-02-21T10:48:37;14.60;;;10.43;;
11034;SDS011;5571;48.110;-1.706;2023-02-21T10:51:09;13.40;;;10.70;;
11034;SDS011;5571;48.110;-1.706;2023-02-21T10:53:41;15.90;;;10.73;;
11034;SDS011;5571;48.110;-1.706;2023-02-21T10:56:18;16.07;;;10.27;;
11034;SDS011;5571;48.110;-1.706;2023-02-21T10:58:53;16.77;;;10.93;;
11034;SDS011;5571;48.110;-1.706;2023-02-21T11:01:37;14.50;;;10.20;;
11034;SDS011;5571;48.110;-1.706;2023-02-21T11:04:30;21.67;;;11.20;;
11034;SDS011;5571;48.110;-1.706;2023-02-21T11:09:34;13.37;;;11.20;;
11034;SDS011;5571;48.110;-1.706;2023-02-21T11:12:06;15.27;;;10.47;;
11034;SDS011;5571;48.110;-1.706;2023-02-21T11:14:34;15.63;;;10.60;;
11034;SDS011;5571;48.110;-1.706;2023-02-21T11:19:47;21.23;;;11.70;;
11034;SDS011;5571;48.110;-1.706;2023-02-21T11:22:25;16.60;;;11.10;;
11034;SDS011;5571;48.110;-1.706;2023-02-21T11:30:26;12.37;;;11.07;;
11034;SDS011;5571;48.110;-1.706;2023-02-21T11:32:54;17.80;;;10.87;;
11034;SDS011;5571;48.110;-1.706;2023-02-21T11:35:26;14.43;;;10.77;;
11034;SDS011;5571;48.110;-1.706;2023-02-21T11:37:56;15.37;;;10.53;;
11034;SDS011;5571;48.110;-1.706;2023-02-21T11:40:43;20.80;;;10.93;;
11034;SDS011;5571;48.110;-1.706;2023-02-21T11:46:33;16.40;;;11.60;;
11034;SDS011;5571;48.110;-1.706;2023-02-21T11:48:43;34.13;;;12.63;;
11034;SDS011;5571;48.110;-1.706;2023-02-21T11:51:26;19.23;;;11.47;;
11034;SDS011;5571;48.110;-1.706;2023-02-21T11:54:02;21.20;;;11.27;;
11034;SDS011;5571;48.110;-1.706;2023-02-21T11:59:31;19.33;;;11.30;;
11034;SDS011;5571;48.110;-1.706;2023-02-21T12:07:48;14.80;;;11.77;;
11034;SDS011;5571;48.110;-1.706;2023-02-21T12:10:45;17.20;;;11.20;;
11034;SDS011;5571;48.110;-1.706;2023-02-21T12:16:21;15.90;;;11.17;;
11034;SDS011;5571;48.110;-1.706;2023-02-21T12:29:48;17.63;;;12.73;;
11034;SDS011;5571;48.110;-1.706;2023-02-21T12:38:06;14.63;;;11.00;;
11034;SDS011;5571;48.110;-1.706;2023-02-21T12:40:48;14.03;;;11.10;;
11034;SDS011;5571;48.110;-1.706;2023-02-21T12:46:02;34.10;;;19.67;;
11034;SDS011;5571;48.110;-1.706;2023-02-21T12:51:07;19.43;;;11.37;;
11034;SDS011;5571;48.110;-1.706;2023-02-21T12:53:57;17.33;;;12.53;;
11034;SDS011;5571;48.110;-1.706;2023-02-21T12:56:33;24.07;;;13.57;;
11034;SDS011;5571;48.110;-1.706;2023-02-21T13:02:12;28.87;;;15.73;;
11034;SDS011;5571;48.110;-1.706;2023-02-21T13:04:58;18.13;;;12.43;;
11034;SDS011;5571;48.110;-1.706;2023-02-21T13:07:50;19.53;;;13.17;;
11034;SDS011;5571;48.110;-1.706;2023-02-21T13:10:24;19.10;;;11.97;;
11034;SDS011;5571;48.110;-1.706;2023-02-21T13:13:09;20.33;;;13.03;;
11034;SDS011;5571;48.110;-1.706;2023-02-21T13:15:39;16.90;;;12.30;;
11034;SDS011;5571;48.110;-1.706;2023-02-21T13:18:09;20.10;;;13.03;;
11034;SDS011;5571;48.110;-1.706;2023-02-21T13:20:42;15.10;;;12.63;;
11034;SDS011;5571;48.110;-1.706;2023-02-21T13:29:27;14.07;;;11.77;;
11034;SDS011;5571;48.110;-1.706;2023-02-21T13:32:05;15.50;;;12.00;;
11034;SDS011;5571;48.110;-1.706;2023-02-21T13:37:22;28.03;;;14.60;;
11034;SDS011;5571;48.110;-1.706;2023-02-21T13:39:52;18.57;;;12.67;;
11034;SDS011;5571;48.110;-1.706;2023-02-21T13:42:30;16.47;;;13.30;;
11034;SDS011;5571;48.110;-1.706;2023-02-21T13:55:28;20.70;;;14.10;;
11034;SDS011;5571;48.110;-1.706;2023-02-21T14:05:22;18.90;;;14.67;;
11034;SDS011;5571;48.110;-1.706;2023-02-21T14:10:36;37.23;;;20.17;;
11034;SDS011;5571;48.110;-1.706;2023-02-21T14:13:22;23.90;;;14.20;;
11034;SDS011;5571;48.110;-1.706;2023-02-21T14:15:49;22.43;;;13.67;;
11034;SDS011;5571;48.110;-1.706;2023-02-21T14:18:29;17.23;;;12.80;;
11034;SDS011;5571;48.110;-1.706;2023-02-21T14:21:01;18.73;;;13.30;;
11034;SDS011;5571;48.110;-1.706;2023-02-21T14:23:57;15.67;;;13.80;;
11034;SDS011;5571;48.110;-1.706;2023-02-21T14:26:52;18.97;;;13.60;;
11034;SDS011;5571;48.110;-1.706;2023-02-21T14:39:54;18.27;;;13.87;;
11034;SDS011;5571;48.110;-1.706;2023-02-21T15:04:19;29.33;;;20.03;;
11034;SDS011;5571;48.110;-1.706;2023-02-21T15:06:52;24.77;;;17.40;;
11034;SDS011;5571;48.110;-1.706;2023-02-21T15:09:25;25.53;;;17.90;;
11034;SDS011;5571;48.110;-1.706;2023-02-21T15:11:51;29.47;;;17.00;;
11034;SDS011;5571;48.110;-1.706;2023-02-21T15:14:20;22.53;;;16.40;;
11034;SDS011;5571;48.110;-1.706;2023-02-21T15:19:28;25.70;;;15.73;;
11034;SDS011;5571;48.110;-1.706;2023-02-21T15:22:06;18.97;;;15.03;;
11034;SDS011;5571;48.110;-1.706;2023-02-21T15:27:36;23.87;;;14.83;;
11034;SDS011;5571;48.110;-1.706;2023-02-21T15:30:12;21.93;;;16.27;;
11034;SDS011;5571;48.110;-1.706;2023-02-21T15:35:42;21.10;;;16.60;;
11034;SDS011;5571;48.110;-1.706;2023-02-21T15:41:13;24.77;;;17.30;;
11034;SDS011;5571;48.110;-1.706;2023-02-21T15:43:53;22.23;;;16.40;;
11034;SDS011;5571;48.110;-1.706;2023-02-21T15:46:28;25.30;;;16.70;;
11034;SDS011;5571;48.110;-1.706;2023-02-21T15:48:59;25.30;;;16.77;;
11034;SDS011;5571;48.110;-1.706;2023-02-21T15:51:27;25.77;;;16.87;;
11034;SDS011;5571;48.110;-1.706;2023-02-21T15:56:41;25.40;;;19.10;;
11034;SDS011;5571;48.110;-1.706;2023-02-21T16:01:33;22.83;;;17.57;;
11034;SDS011;5571;48.110;-1.706;2023-02-21T16:04:18;24.07;;;17.03;;
11034;SDS011;5571;48.110;-1.706;2023-02-21T16:06:46;23.00;;;16.20;;
11034;SDS011;5571;48.110;-1.706;2023-02-21T16:19:38;24.83;;;17.77;;
11034;SDS011;5571;48.110;-1.706;2023-02-21T16:22:26;22.40;;;16.67;;
11034;SDS011;5571;48.110;-1.706;2023-02-21T16:25:05;21.93;;;17.27;;
11034;SDS011;5571;48.110;-1.706;2023-02-21T16:27:34;25.57;;;17.57;;
11034;SDS011;5571;48.110;-1.706;2023-02-21T16:30:00;18.93;;;14.97;;
11034;SDS011;5571;48.110;-1.706;2023-02-21T16:32:25;22.60;;;15.70;;
11034;SDS011;5571;48.110;-1.706;2023-02-21T16:34:51;27.20;;;18.73;;
11034;SDS011;5571;48.110;-1.706;2023-02-21T16:37:19;22.03;;;15.73;;
11034;SDS011;5571;48.110;-1.706;2023-02-21T16:39:45;26.07;;;15.83;;
11034;SDS011;5571;48.110;-1.706;2023-02-21T16:42:12;18.20;;;16.10;;
11034;SDS011;5571;48.110;-1.706;2023-02-21T16:44:38;21.67;;;15.90;;
11034;SDS011;5571;48.110;-1.706;2023-02-21T16:47:06;23.67;;;16.10;;
11034;SDS011;5571;48.110;-1.706;2023-02-21T16:49:32;21.47;;;17.67;;
11034;SDS011;5571;48.110;-1.706;2023-02-21T16:51:58;20.53;;;16.97;;
11034;SDS011;5571;48.110;-1.706;2023-02-21T16:54:24;21.63;;;16.23;;
11034;SDS011;5571;48.110;-1.706;2023-02-21T16:56:50;19.00;;;16.10;;
11034;SDS011;5571;48.110;-1.706;2023-02-21T16:59:18;18.00;;;16.03;;
11034;SDS011;5571;48.110;-1.706;2023-02-21T17:01:46;20.97;;;15.80;;
11034;SDS011;5571;48.110;-1.706;2023-02-21T17:04:22;21.50;;;17.37;;
11034;SDS011;5571;48.110;-1.706;2023-02-21T17:06:54;21.37;;;16.60;;
11034;SDS011;5571;48.110;-1.706;2023-02-21T17:09:23;21.10;;;16.33;;
11034;SDS011;5571;48.110;-1.706;2023-02-21T17:11:51;21.70;;;15.30;;
11034;SDS011;5571;48.110;-1.706;2023-02-21T17:14:17;22.50;;;16.73;;
11034;SDS011;5571;48.110;-1.706;2023-02-21T17:16:44;24.23;;;18.10;;
11034;SDS011;5571;48.110;-1.706;2023-02-21T17:19:11;25.73;;;16.90;;
11034;SDS011;5571;48.110;-1.706;2023-02-21T17:21:41;23.07;;;17.97;;
11034;SDS011;5571;48.110;-1.706;2023-02-21T17:24:07;25.47;;;18.97;;
11034;SDS011;5571;48.110;-1.706;2023-02-21T17:26:33;22.90;;;17.73;;
11034;SDS011;5571;48.110;-1.706;2023-02-21T17:28:59;25.60;;;18.90;;
11034;SDS011;5571;48.110;-1.706;2023-02-21T17:31:25;24.13;;;20.53;;
11034;SDS011;5571;48.110;-1.706;2023-02-21T17:33:51;29.10;;;19.67;;
11034;SDS011;5571;48.110;-1.706;2023-02-21T17:36:17;24.47;;;18.57;;
11034;SDS011;5571;48.110;-1.706;2023-02-21T17:38:43;21.73;;;19.00;;
11034;SDS011;5571;48.110;-1.706;2023-02-21T17:41:10;28.70;;;20.40;;
11034;SDS011;5571;48.110;-1.706;2023-02-21T17:43:36;28.07;;;20.17;;
11034;SDS011;5571;48.110;-1.706;2023-02-21T17:46:02;31.43;;;20.23;;
11034;SDS011;5571;48.110;-1.706;2023-02-21T17:48:28;25.87;;;19.97;;
11034;SDS011;5571;48.110;-1.706;2023-02-21T17:50:54;26.27;;;20.60;;
11034;SDS011;5571;48.110;-1.706;2023-02-21T17:53:19;29.40;;;19.97;;
11034;SDS011;5571;48.110;-1.706;2023-02-21T17:55:46;28.10;;;21.83;;
11034;SDS011;5571;48.110;-1.706;2023-02-21T17:58:12;29.87;;;22.97;;
11034;SDS011;5571;48.110;-1.706;2023-02-21T18:00:37;29.37;;;22.87;;
11034;SDS011;5571;48.110;-1.706;2023-02-21T18:03:03;32.20;;;22.07;;
11034;SDS011;5571;48.110;-1.706;2023-02-21T18:05:30;32.33;;;24.17;;
11034;SDS011;5571;48.110;-1.706;2023-02-21T18:07:57;38.20;;;24.60;;
11034;SDS011;5571;48.110;-1.706;2023-02-21T18:10:23;30.33;;;21.87;;
11034;SDS011;5571;48.110;-1.706;2023-02-21T18:12:50;36.27;;;25.27;;
11034;SDS011;5571;48.110;-1.706;2023-02-21T18:15:20;29.47;;;22.83;;
11034;SDS011;5571;48.110;-1.706;2023-02-21T18:17:47;27.83;;;22.30;;
11034;SDS011;5571;48.110;-1.706;2023-02-21T18:20:13;31.50;;;23.77;;